createdAt,value
2018-07-10T05:45:17.643Z,75.79
2018-07-10T05:46:15.882Z,74.96
2018-07-10T05:48:10.639Z,71.97
2018-07-10T05:50:24.038Z,71.14
2018-07-10T05:51:24.561Z,70.56
2018-07-10T05:53:17.106Z,69.18
2018-07-10T05:54:16.584Z,69.09
2018-07-10T05:56:10.065Z,70.15
2018-07-10T05:57:09.783Z,70.72
2018-07-10T05:59:02.710Z,69.67
2018-07-10T06:00:02.576Z,69.67
2018-07-10T06:01:57.273Z,69.85
2018-07-10T06:02:57.927Z,69.15
2018-07-10T06:04:51.066Z,70.68
2018-07-10T06:05:50.642Z,71.65
2018-07-10T06:07:42.198Z,71.71
2018-07-10T06:08:42.145Z,71.75
2018-07-10T06:10:35.579Z,71.84
2018-07-10T06:11:35.570Z,71.55
2018-07-10T06:13:31.023Z,71.75
2018-07-10T06:14:30.503Z,70.88
2018-07-10T06:16:21.417Z,71.46
2018-07-10T06:17:22.645Z,70.75
2018-07-10T06:19:15.410Z,71.71
2018-07-10T06:20:14.985Z,72.42
2018-07-10T06:22:10.175Z,71.36
2018-07-10T06:23:10.196Z,70.40
2018-07-10T06:25:01.918Z,71.26
2018-07-10T06:26:01.928Z,69.92
2018-07-10T06:27:55.291Z,69.34
2018-07-10T06:28:54.985Z,69.34
2018-07-10T06:30:50.311Z,69.53
2018-07-10T06:31:50.297Z,70.05
2018-07-10T06:33:42.343Z,67.93
2018-07-10T06:34:41.963Z,67.83
2018-07-10T06:36:35.230Z,67.93
2018-07-10T06:37:35.326Z,68.60
2018-07-10T06:39:31.309Z,69.18
2018-07-10T06:40:29.211Z,68.32
2018-07-10T06:42:23.144Z,67.58
2018-07-10T06:43:22.557Z,66.81
2018-07-10T06:45:15.856Z,66.24
2018-07-10T06:46:15.436Z,66.91
2018-07-10T06:48:09.794Z,64.53
2018-07-10T06:49:09.755Z,64.66
2018-07-10T06:51:03.661Z,65.88
2018-07-10T06:52:03.359Z,63.85
2018-07-10T06:53:57.596Z,64.79
2018-07-10T06:54:56.433Z,65.08
2018-07-10T06:56:50.479Z,66.33
2018-07-10T06:57:50.372Z,65.50
2018-07-10T06:59:43.826Z,65.69
2018-07-10T07:00:43.831Z,65.30
2018-07-10T07:02:38.732Z,65.53
2018-07-10T07:03:37.064Z,62.70
2018-07-10T07:05:30.053Z,63.44
2018-07-10T07:06:30.425Z,64.11
2018-07-10T07:08:23.878Z,63.21
2018-07-10T07:09:23.394Z,63.21
2018-07-10T07:11:17.104Z,63.60
2018-07-10T07:12:17.197Z,63.95
2018-07-10T07:14:11.534Z,63.95
2018-07-10T07:15:11.168Z,64.15
2018-07-10T07:17:05.547Z,63.95
2018-07-10T07:18:12.402Z,64.15
2018-07-10T07:20:05.985Z,63.57
2018-07-10T07:22:20.614Z,64.21
2018-07-10T07:23:19.807Z,64.63
2018-07-10T07:25:13.324Z,63.67
2018-07-10T07:26:12.878Z,63.18
2018-07-10T07:28:07.007Z,61.64
2018-07-10T07:29:06.629Z,62.02
2018-07-10T07:31:01.498Z,59.93
2018-07-10T07:32:00.937Z,59.25
2018-07-10T07:33:54.392Z,59.06
2018-07-10T07:34:54.368Z,59.13
2018-07-10T07:36:51.248Z,59.80
2018-07-10T07:37:47.751Z,58.75
2018-07-10T07:39:42.738Z,59.20
2018-07-10T07:40:41.043Z,60.06
2018-07-10T07:42:34.494Z,60.35
2018-07-10T07:43:35.999Z,59.87
2018-07-10T07:45:28.592Z,59.90
2018-07-10T07:46:29.125Z,59.80
2018-07-10T07:48:24.425Z,59.71
2018-07-10T07:49:21.286Z,60.00
2018-07-10T07:51:15.033Z,60.00
2018-07-10T07:52:14.864Z,59.30
2018-07-10T07:54:08.660Z,61.03
2018-07-10T07:55:08.118Z,61.51
2018-07-10T07:57:02.084Z,61.29
2018-07-10T07:58:01.417Z,62.06
2018-07-10T07:59:54.515Z,61.10
2018-07-10T08:00:56.611Z,61.19
2018-07-10T08:02:47.757Z,61.96
2018-07-10T08:03:48.319Z,61.10
2018-07-10T08:05:41.669Z,61.68
2018-07-10T08:06:42.158Z,61.29
2018-07-10T08:08:34.776Z,61.83
2018-07-10T08:09:34.137Z,62.51
2018-07-10T08:11:28.577Z,62.12
2018-07-10T08:12:28.050Z,62.19
2018-07-10T08:14:21.143Z,62.48
2018-07-10T08:15:20.823Z,62.57
2018-07-10T08:17:15.501Z,62.77
2018-07-10T08:18:14.191Z,63.25
2018-07-10T08:20:07.759Z,63.89
2018-07-10T08:21:07.955Z,64.76
2018-07-10T08:23:01.271Z,64.08
2018-07-10T08:24:00.877Z,64.76
2018-07-10T08:25:54.591Z,65.24
2018-07-10T08:26:54.467Z,65.53
2018-07-10T08:28:49.197Z,65.14
2018-07-10T08:29:48.298Z,64.89
2018-07-10T08:31:42.246Z,64.12
2018-07-10T08:32:41.560Z,63.34
2018-07-10T08:34:35.847Z,63.57
2018-07-10T08:35:34.653Z,63.57
2018-07-10T08:37:30.342Z,62.12
2018-07-10T08:38:28.744Z,61.93
2018-07-10T08:40:23.171Z,62.70
2018-07-10T08:41:22.142Z,61.93
2018-07-10T08:43:15.470Z,61.68
2018-07-10T08:44:15.423Z,60.26
2018-07-10T08:46:08.842Z,60.06
2018-07-10T08:47:08.926Z,59.58
2018-07-10T08:49:02.535Z,59.39
2018-07-10T08:50:01.493Z,59.48
2018-07-10T08:51:55.387Z,58.20
2018-07-10T08:52:55.247Z,58.11
2018-07-10T08:54:48.384Z,59.72
2018-07-10T08:55:48.893Z,59.94
2018-07-10T08:57:42.696Z,59.94
2018-07-10T08:58:44.756Z,59.55
2018-07-10T09:00:34.714Z,60.61
2018-07-10T09:01:33.800Z,59.84
2018-07-10T09:03:27.631Z,58.88
2018-07-10T09:04:27.225Z,59.75
2018-07-10T09:06:21.037Z,58.91
2018-07-10T09:07:21.006Z,58.33
2018-07-10T09:09:17.354Z,57.97
2018-07-10T09:10:13.549Z,56.91
2018-07-10T09:12:09.199Z,57.01
2018-07-10T09:13:08.337Z,56.91
2018-07-10T09:15:05.694Z,56.72
2018-07-10T09:16:03.513Z,55.88
2018-07-10T09:17:56.119Z,54.53
2018-07-10T09:18:54.871Z,55.78
2018-07-10T09:20:48.644Z,53.30
2018-07-10T09:21:48.207Z,53.78
2018-07-10T09:23:41.582Z,53.20
2018-07-10T09:24:41.595Z,53.49
2018-07-10T09:26:35.312Z,54.19
2018-07-10T09:27:35.277Z,54.19
2018-07-10T09:29:28.715Z,54.27
2018-07-10T09:30:28.426Z,54.00
2018-07-10T09:32:21.593Z,53.45
2018-07-10T09:33:21.254Z,53.55
2018-07-10T09:35:14.834Z,52.70
2018-07-10T09:36:14.791Z,52.02
2018-07-10T09:38:07.774Z,51.18
2018-07-10T09:39:07.529Z,50.89
2018-07-10T09:41:01.354Z,50.98
2018-07-10T09:42:00.928Z,50.21
2018-07-10T09:43:54.701Z,50.92
2018-07-10T09:44:54.340Z,50.89
2018-07-10T09:46:47.792Z,49.63
2018-07-10T09:47:47.738Z,50.38
2018-07-10T09:49:41.144Z,50.57
2018-07-10T09:50:40.718Z,50.38
2018-07-10T09:52:33.950Z,50.18
2018-07-10T09:53:33.596Z,51.32
2018-07-10T09:55:26.564Z,52.87
2018-07-10T09:56:26.638Z,52.48
2018-07-10T09:58:20.331Z,51.81
2018-07-10T09:59:19.916Z,51.71
2018-07-10T10:01:13.376Z,51.03
2018-07-10T10:02:13.293Z,52.19
2018-07-10T10:04:06.681Z,51.42
2018-07-10T10:05:06.688Z,51.03
2018-07-10T10:07:07.961Z,50.38
2018-07-10T10:08:07.898Z,50.86
2018-07-10T10:09:52.987Z,50.40
2018-07-10T10:10:52.953Z,50.98
2018-07-10T10:12:45.863Z,50.60
2018-07-10T10:13:46.148Z,50.50
2018-07-10T10:15:39.454Z,51.44
2018-07-10T10:16:39.228Z,51.35
2018-07-10T10:18:32.181Z,52.02
2018-07-10T10:19:32.119Z,52.02
2018-07-10T10:21:25.057Z,51.51
2018-07-10T10:22:25.024Z,51.23
2018-07-10T10:24:18.433Z,51.23
2018-07-10T10:25:18.416Z,52.07
2018-07-10T10:27:11.879Z,52.26
2018-07-10T10:28:11.791Z,52.17
2018-07-10T10:30:06.717Z,53.61
2018-07-10T10:31:05.667Z,53.13
2018-07-10T10:33:00.027Z,53.03
2018-07-10T10:33:59.344Z,53.52
2018-07-10T10:35:52.304Z,52.75
2018-07-10T10:36:52.003Z,52.81
2018-07-10T10:38:45.573Z,53.03
2018-07-10T10:39:45.333Z,53.23
2018-07-10T10:41:38.789Z,53.13
2018-07-10T10:42:38.747Z,53.52
2018-07-10T10:44:32.517Z,52.87
2018-07-10T10:45:32.111Z,52.19
2018-07-10T10:47:25.108Z,51.54
2018-07-10T10:48:26.891Z,51.06
2018-07-10T10:50:18.228Z,51.32
2018-07-10T10:51:17.897Z,52.07
2018-07-10T10:53:11.264Z,51.90
2018-07-10T10:54:11.456Z,51.87
2018-07-10T10:56:04.991Z,52.17
2018-07-10T10:57:04.189Z,52.55
2018-07-10T10:58:57.236Z,53.52
2018-07-10T10:59:57.215Z,53.52
2018-07-10T11:01:51.013Z,52.67
2018-07-10T11:02:50.614Z,52.39
2018-07-10T11:04:44.033Z,52.29
2018-07-10T11:05:43.973Z,52.48
2018-07-10T11:07:39.452Z,52.77
2018-07-10T11:08:38.302Z,52.39
2018-07-10T11:10:31.654Z,52.39
2018-07-10T11:11:31.345Z,52.94
2018-07-10T11:13:25.712Z,53.88
2018-07-10T11:14:24.702Z,53.69
2018-07-10T11:16:18.060Z,54.53
2018-07-10T11:17:17.646Z,54.53
2018-07-10T11:19:11.949Z,55.42
2018-07-10T11:20:11.577Z,55.33
2018-07-10T11:22:06.262Z,55.13
2018-07-10T11:23:05.514Z,54.84
2018-07-10T11:24:59.770Z,54.39
2018-07-10T11:25:58.769Z,53.71
2018-07-10T11:27:53.457Z,53.78
2018-07-10T11:28:53.197Z,53.78
2018-07-10T11:30:46.779Z,54.46
2018-07-10T11:31:45.895Z,54.65
2018-07-10T11:33:41.766Z,54.72
2018-07-10T11:34:40.302Z,55.71
2018-07-10T11:36:34.173Z,54.82
2018-07-10T11:37:33.692Z,55.20
2018-07-10T11:39:27.592Z,55.78
2018-07-10T11:40:27.423Z,55.59
2018-07-10T11:42:22.403Z,56.16
2018-07-10T11:43:21.805Z,55.98
2018-07-10T11:45:15.245Z,55.52
2018-07-10T11:46:13.971Z,55.68
2018-07-10T11:48:09.023Z,56.16
2018-07-10T11:49:07.342Z,56.36
2018-07-10T11:51:01.344Z,56.36
2018-07-10T11:52:00.653Z,57.04
2018-07-10T11:53:54.172Z,56.74
2018-07-10T11:54:53.749Z,56.16
2018-07-10T11:56:48.128Z,56.46
2018-07-10T11:57:48.109Z,56.00
2018-07-10T11:59:45.220Z,55.62
2018-07-10T12:00:40.533Z,54.75
2018-07-10T12:02:34.915Z,54.68
2018-07-10T12:03:33.980Z,55.55
2018-07-10T12:05:27.737Z,55.55
2018-07-10T12:06:27.674Z,55.83
2018-07-10T12:08:21.159Z,54.68
2018-07-10T12:09:21.049Z,55.45
2018-07-10T12:11:36.580Z,54.68
2018-07-10T12:12:14.047Z,54.19
2018-07-10T12:14:07.684Z,54.77
2018-07-10T12:15:07.409Z,54.58
2018-07-10T12:17:00.383Z,54.58
2018-07-10T12:17:59.978Z,54.87
2018-07-10T12:19:53.768Z,53.69
2018-07-10T12:20:53.445Z,54.65
2018-07-10T12:22:48.209Z,54.29
2018-07-10T12:23:47.212Z,54.17
2018-07-10T12:25:40.773Z,54.55
2018-07-10T12:26:39.974Z,55.23
2018-07-10T12:28:33.766Z,56.16
2018-07-10T12:29:32.942Z,56.07
2018-07-10T12:31:30.414Z,56.65
2018-07-10T12:32:28.893Z,56.16
2018-07-10T12:34:21.096Z,55.78
2018-07-10T12:35:20.921Z,55.94
2018-07-10T12:37:24.291Z,57.59
2018-07-10T12:38:24.217Z,58.68
2018-07-10T12:40:18.150Z,57.23
2018-07-10T12:41:18.542Z,57.14
2018-07-10T12:43:11.317Z,56.65
2018-07-10T12:44:11.254Z,56.74
2018-07-10T12:46:04.635Z,57.23
2018-07-10T12:47:04.203Z,56.36
2018-07-10T12:48:57.989Z,55.98
2018-07-10T12:49:57.625Z,56.36
2018-07-10T12:51:52.940Z,56.65
2018-07-10T12:52:51.888Z,56.84
2018-07-10T12:54:44.817Z,56.10
2018-07-10T12:55:43.905Z,56.48
2018-07-10T12:57:37.650Z,56.20
2018-07-10T12:58:37.875Z,55.65
2018-07-10T13:00:31.515Z,55.71
2018-07-10T13:01:31.035Z,55.74
2018-07-10T13:03:24.463Z,55.55
2018-07-10T13:04:24.422Z,54.84
2018-07-10T13:06:19.258Z,55.45
2018-07-10T13:07:17.970Z,55.71
2018-07-10T13:09:18.238Z,55.90
2018-07-10T13:10:18.182Z,55.71
2018-07-10T13:12:12.737Z,55.74
2018-07-10T13:13:11.134Z,55.90
2018-07-10T13:15:05.018Z,55.71
2018-07-10T13:16:04.610Z,55.90
2018-07-10T13:17:58.884Z,56.00
2018-07-10T13:18:58.342Z,55.52
2018-07-10T13:20:51.776Z,55.90
2018-07-10T13:21:51.492Z,56.29
2018-07-10T13:23:55.458Z,56.87
2018-07-10T13:24:44.878Z,56.46
2018-07-10T13:26:38.835Z,56.56
2018-07-10T13:27:39.360Z,56.96
2018-07-10T13:29:39.332Z,57.32
2018-07-10T13:30:39.335Z,56.84
2018-07-10T13:32:33.586Z,57.32
2018-07-10T13:33:32.691Z,57.14
2018-07-10T13:35:27.044Z,58.39
2018-07-10T13:36:26.690Z,58.45
2018-07-10T13:38:23.043Z,59.48
2018-07-10T13:39:19.946Z,60.45
2018-07-10T13:41:13.592Z,60.93
2018-07-10T13:42:13.849Z,60.74
2018-07-10T13:44:07.324Z,59.90
2018-07-10T13:45:06.873Z,60.38
2018-07-10T13:47:06.794Z,61.41
2018-07-10T13:48:06.714Z,61.13
2018-07-10T13:50:00.493Z,61.90
2018-07-10T13:51:00.129Z,62.18
2018-07-10T13:52:53.951Z,62.09
2018-07-10T13:53:53.893Z,62.18
2018-07-10T13:55:47.235Z,62.09
2018-07-10T13:56:46.959Z,62.28
2018-07-10T13:58:42.839Z,62.18
2018-07-10T13:59:41.211Z,61.80
2018-07-10T14:01:35.046Z,61.06
2018-07-10T14:02:35.543Z,61.16
2018-07-10T14:04:28.480Z,60.41
2018-07-10T14:05:28.377Z,60.51
2018-07-10T14:07:21.794Z,59.45
2018-07-10T14:08:21.795Z,59.00
2018-07-10T14:10:14.803Z,59.09
2018-07-10T14:11:14.380Z,59.09
2018-07-10T14:13:08.732Z,58.45
2018-07-10T14:14:08.145Z,58.54
2018-07-10T14:16:01.570Z,58.64
2018-07-10T14:17:02.598Z,58.45
2018-07-10T14:19:02.001Z,57.77
2018-07-10T14:20:01.847Z,57.96
2018-07-10T14:21:55.227Z,57.57
2018-07-10T14:22:54.987Z,58.25
2018-07-10T14:24:58.730Z,57.89
2018-07-10T14:25:48.357Z,57.79
2018-07-10T14:27:46.671Z,58.09
2018-07-10T14:28:41.669Z,57.31
2018-07-10T14:30:34.738Z,57.67
2018-07-10T14:31:34.624Z,57.70
2018-07-10T14:33:28.560Z,58.09
2018-07-10T14:34:28.750Z,57.77
2018-07-10T14:36:21.649Z,57.41
2018-07-10T14:37:22.051Z,57.41
2018-07-10T14:39:15.060Z,57.21
2018-07-10T14:40:15.016Z,57.70
2018-07-10T14:42:08.464Z,58.28
2018-07-10T14:43:08.335Z,57.89
2018-07-10T14:45:02.034Z,57.99
2018-07-10T14:46:02.434Z,57.79
2018-07-10T14:47:58.730Z,58.73
2018-07-10T14:48:55.230Z,58.37
2018-07-10T14:50:48.646Z,58.37
2018-07-10T14:51:47.713Z,58.47
2018-07-10T14:53:42.446Z,58.54
2018-07-10T14:54:43.731Z,58.64
2018-07-10T14:56:37.097Z,58.83
2018-07-10T14:57:35.632Z,59.31
2018-07-10T14:59:29.158Z,59.51
2018-07-10T15:00:28.812Z,59.12
2018-07-10T15:02:23.703Z,59.02
2018-07-10T15:03:22.682Z,58.37
2018-07-10T15:05:16.580Z,58.67
2018-07-10T15:06:15.974Z,59.60
2018-07-10T15:08:09.665Z,59.70
2018-07-10T15:09:09.195Z,59.80
2018-07-10T15:11:02.515Z,59.99
2018-07-10T15:12:02.501Z,59.80
2018-07-10T15:13:55.548Z,61.12
2018-07-10T15:14:55.714Z,60.25
2018-07-10T15:16:56.931Z,60.73
2018-07-10T15:17:50.751Z,60.35
2018-07-10T15:19:44.623Z,60.35
2018-07-10T15:20:44.271Z,60.44
2018-07-10T15:22:37.848Z,60.44
2018-07-10T15:23:37.026Z,60.35
2018-07-10T15:25:31.506Z,60.54
2018-07-10T15:26:30.989Z,60.93
2018-07-10T15:28:23.811Z,60.83
2018-07-10T15:29:23.873Z,61.51
2018-07-10T15:31:17.754Z,61.31
2018-07-10T15:32:19.427Z,61.60
2018-07-10T15:34:10.677Z,62.28
2018-07-10T15:35:10.205Z,61.77
2018-07-10T15:37:06.972Z,61.96
2018-07-10T15:38:05.165Z,62.28
2018-07-10T15:39:57.987Z,61.89
2018-07-10T15:40:57.630Z,62.08
2018-07-10T15:42:52.482Z,62.08
2018-07-10T15:43:50.819Z,62.18
2018-07-10T15:45:43.872Z,62.63
2018-07-10T15:46:51.767Z,63.12
2018-07-10T15:48:37.700Z,62.82
2018-07-10T15:49:37.131Z,62.44
2018-07-10T15:51:31.526Z,62.54
2018-07-10T15:52:31.387Z,62.54
2018-07-10T15:54:24.317Z,62.44
2018-07-10T15:55:23.897Z,62.82
2018-07-10T15:57:17.844Z,62.54
2018-07-10T15:58:18.745Z,62.86
2018-07-10T16:00:10.257Z,62.57
2018-07-10T16:01:09.767Z,62.66
2018-07-10T16:03:03.480Z,62.66
2018-07-10T16:04:03.139Z,62.47
2018-07-10T16:05:56.661Z,62.86
2018-07-10T16:06:56.710Z,61.99
2018-07-10T16:08:49.722Z,62.37
2018-07-10T16:09:49.647Z,62.57
2018-07-10T16:11:43.114Z,63.43
2018-07-10T16:12:43.199Z,63.15
2018-07-10T16:14:36.456Z,62.92
2018-07-10T16:15:36.442Z,63.98
2018-07-10T16:17:30.745Z,63.98
2018-07-10T16:18:29.252Z,64.28
2018-07-10T16:20:22.703Z,64.11
2018-07-10T16:21:22.455Z,64.18
2018-07-10T16:23:16.395Z,65.43
2018-07-10T16:24:15.929Z,65.63
2018-07-10T16:26:12.271Z,67.46
2018-07-10T16:27:10.769Z,68.62
2018-07-10T16:29:03.883Z,69.64
2018-07-10T16:30:03.255Z,71.03
2018-07-10T16:31:57.088Z,74.51
2018-07-10T16:32:56.690Z,72.92
2018-07-10T16:34:49.611Z,71.58
2018-07-10T16:35:49.532Z,71.67
2018-07-10T16:37:43.946Z,71.96
2018-07-10T16:38:43.002Z,72.25
2018-07-10T16:40:37.010Z,73.02
2018-07-10T16:41:36.765Z,73.31
2018-07-10T16:43:30.586Z,72.63
2018-07-10T16:44:30.702Z,72.92
2018-07-10T16:46:23.330Z,73.79
2018-07-10T16:47:23.308Z,74.85
2018-07-10T16:49:19.771Z,73.79
2018-07-10T16:50:17.201Z,73.99
2018-07-10T16:52:10.041Z,74.21
2018-07-10T16:53:11.568Z,73.63
2018-07-10T16:55:03.541Z,74.12
2018-07-10T16:56:02.902Z,74.79
2018-07-10T16:57:56.380Z,75.57
2018-07-10T16:58:55.881Z,74.89
2018-07-10T17:00:55.415Z,76.20
2018-07-10T17:01:54.230Z,77.07
2018-07-10T17:03:47.594Z,78.13
2018-07-10T17:04:47.542Z,77.07
2018-07-10T17:06:41.071Z,77.65
2018-07-10T17:07:40.584Z,80.16
2018-07-10T17:09:33.439Z,81.09
2018-07-10T17:10:33.432Z,79.83
2018-07-10T17:12:27.207Z,81.85
2018-07-10T17:13:27.436Z,79.10
2018-07-10T17:15:22.066Z,77.36
2018-07-10T17:16:21.761Z,77.78
2018-07-10T17:18:13.923Z,78.27
2018-07-10T17:19:13.595Z,76.92
2018-07-10T17:21:07.190Z,79.24
2018-07-10T17:22:07.164Z,80.10
2018-07-10T17:24:00.738Z,80.16
2018-07-10T17:24:59.799Z,79.87
2018-07-10T17:26:54.191Z,81.32
2018-07-10T17:27:54.138Z,81.12
2018-07-10T17:29:49.547Z,83.92
2018-07-10T17:30:47.569Z,82.14
2018-07-10T17:32:41.105Z,82.53
2018-07-10T17:33:41.031Z,84.46
2018-07-10T17:35:34.360Z,85.52
2018-07-10T17:36:33.638Z,86.19
2018-07-10T17:38:28.847Z,86.73
2018-07-10T17:39:27.100Z,88.37
2018-07-10T17:41:26.170Z,89.53
2018-07-10T17:42:23.905Z,90.10
2018-07-10T17:44:15.558Z,89.53
2018-07-10T17:45:15.143Z,89.04
2018-07-10T17:47:07.871Z,89.91
2018-07-10T17:48:07.806Z,89.58
2018-07-10T17:50:05.668Z,90.83
2018-07-10T17:51:02.258Z,90.64
2018-07-10T17:53:00.247Z,93.24
2018-07-10T17:53:59.643Z,92.18
2018-07-10T17:55:53.551Z,93.81
2018-07-10T17:56:53.494Z,93.24
2018-07-10T17:58:47.988Z,93.91
2018-07-10T17:59:46.500Z,94.39
2018-07-10T18:01:40.517Z,96.03
2018-07-10T18:02:42.388Z,95.74
2018-07-10T18:04:38.560Z,95.36
2018-07-10T18:05:33.007Z,95.94
2018-07-10T18:07:26.986Z,95.26
2018-07-10T18:08:25.513Z,96.03
2018-07-10T18:10:20.055Z,94.20
2018-07-10T18:11:19.667Z,96.70
2018-07-10T18:13:15.069Z,95.84
2018-07-10T18:14:13.217Z,94.68
2018-07-10T18:16:07.243Z,96.61
2018-07-10T18:17:07.446Z,97.19
2018-07-10T18:18:59.948Z,96.12
2018-07-10T18:20:02.523Z,95.84
2018-07-10T18:21:55.047Z,95.26
2018-07-10T18:22:54.603Z,94.78
2018-07-10T18:24:47.596Z,95.94
2018-07-10T18:27:03.010Z,93.52
2018-07-10T18:28:01.133Z,94.59
2018-07-10T18:29:54.371Z,93.43
2018-07-10T18:30:54.170Z,92.90
2018-07-10T18:32:48.312Z,92.13
2018-07-10T18:33:48.332Z,92.32
2018-07-10T18:35:51.180Z,92.94
2018-07-10T18:38:34.226Z,94.68
2018-07-10T18:40:49.896Z,93.04
2018-07-10T18:41:48.745Z,92.76
2018-07-10T18:43:41.476Z,93.91
2018-07-10T18:44:41.877Z,93.72
2018-07-10T18:46:34.181Z,89.39
2018-07-10T18:47:33.293Z,89.91
2018-07-10T18:49:27.156Z,90.78
2018-07-10T18:50:26.662Z,92.85
2018-07-10T18:52:21.368Z,98.77
2018-07-10T18:53:21.331Z,99.99
2018-07-10T18:55:15.963Z,96.32
2018-07-10T18:56:15.097Z,94.78
2018-07-10T18:58:07.911Z,94.25
2018-07-10T18:59:07.434Z,92.04
2018-07-10T19:01:04.322Z,91.71
2018-07-10T19:03:57.830Z,95.60
2018-07-10T19:04:57.272Z,97.33
2018-07-10T19:06:55.096Z,99.99
2018-07-10T19:10:52.429Z,99.99
2018-07-10T19:14:42.968Z,99.99
2018-07-10T19:15:35.596Z,99.99
2018-07-10T19:17:30.058Z,99.99
2018-07-10T19:20:25.285Z,99.99
2018-07-10T19:21:22.977Z,99.99
2018-07-10T19:23:21.514Z,99.99
2018-07-10T19:24:16.157Z,99.99
2018-07-10T19:26:26.526Z,99.99
2018-07-10T19:27:24.560Z,99.99
2018-07-10T19:29:17.839Z,99.99
2018-07-10T19:30:18.330Z,99.99
2018-07-10T19:32:12.081Z,99.99
2018-07-10T19:33:11.908Z,99.99
2018-07-10T19:35:04.395Z,99.99
2018-07-10T19:36:05.129Z,99.99
2018-07-10T19:37:59.209Z,99.99
2018-07-10T19:38:57.832Z,99.99
2018-07-10T19:40:53.316Z,99.99
2018-07-10T19:41:53.487Z,99.99
2018-07-10T19:44:02.556Z,99.99
2018-07-10T19:45:00.865Z,99.99
2018-07-10T19:47:07.023Z,99.99
2018-07-10T19:48:06.840Z,99.99
2018-07-10T19:50:01.200Z,99.99
2018-07-10T19:52:55.565Z,99.99
2018-07-10T19:53:54.578Z,99.99
2018-07-10T19:55:48.365Z,99.99
2018-07-10T19:56:46.664Z,99.99
2018-07-10T20:01:44.439Z,99.99
2018-07-10T20:02:40.445Z,99.99
2018-07-10T20:05:26.446Z,99.99
2018-07-10T20:06:25.505Z,99.99
2018-07-10T20:08:20.652Z,99.99
2018-07-10T20:09:20.170Z,99.99
2018-07-10T20:11:13.093Z,99.99
2018-07-10T20:12:11.977Z,99.99
2018-07-10T20:14:04.811Z,99.99
2018-07-10T20:15:05.785Z,99.99
2018-07-10T20:16:58.356Z,99.99
2018-07-10T20:17:57.784Z,99.99
2018-07-10T20:19:53.541Z,99.99
2018-07-10T20:20:52.351Z,99.99
2018-07-10T20:22:45.814Z,99.99
2018-07-10T20:23:44.923Z,99.99
2018-07-10T20:25:40.988Z,99.99
2018-07-10T20:26:38.782Z,99.99
2018-07-10T20:28:35.216Z,99.99
2018-07-10T20:29:33.316Z,99.99
2018-07-10T20:32:18.615Z,99.99
2018-07-10T20:33:17.689Z,99.99
2018-07-10T20:35:10.736Z,99.99
2018-07-10T20:36:09.742Z,99.99
2018-07-10T20:38:05.125Z,99.99
2018-07-10T20:39:04.121Z,99.99
2018-07-10T20:40:58.850Z,99.99
2018-07-10T20:41:57.275Z,99.99
2018-07-10T20:43:52.644Z,99.99
2018-07-10T20:44:53.042Z,99.99
2018-07-10T20:46:45.253Z,99.99
2018-07-10T20:47:45.259Z,99.99
2018-07-10T20:49:40.152Z,99.99
2018-07-10T20:50:40.050Z,99.99
2018-07-10T20:52:33.942Z,99.99
2018-07-10T20:53:31.540Z,99.99
2018-07-10T20:55:26.201Z,99.99
2018-07-10T20:56:25.962Z,99.99
2018-07-10T20:58:19.360Z,99.99
2018-07-10T20:59:19.975Z,99.99
2018-07-10T21:01:12.191Z,99.99
2018-07-10T21:02:12.054Z,99.99
2018-07-10T21:04:05.403Z,99.99
2018-07-10T21:05:04.663Z,99.99
2018-07-10T21:06:58.350Z,99.99
2018-07-10T21:07:58.327Z,99.99
2018-07-10T21:09:51.277Z,99.99
2018-07-10T21:10:51.221Z,99.99
2018-07-10T21:12:45.150Z,99.99
2018-07-10T21:13:45.108Z,99.99
2018-07-10T21:15:39.572Z,99.99
2018-07-10T21:16:39.140Z,99.99
2018-07-10T21:18:33.129Z,99.99
2018-07-10T21:19:32.969Z,99.99
2018-07-10T21:21:25.448Z,99.99
2018-07-10T21:22:25.406Z,99.99
2018-07-10T21:24:18.336Z,99.99
2018-07-10T21:25:18.241Z,99.99
2018-07-10T21:27:11.355Z,99.99
2018-07-10T21:28:11.123Z,99.99
2018-07-10T21:30:05.388Z,99.99
2018-07-10T21:31:04.486Z,99.99
2018-07-10T21:32:58.075Z,99.99
2018-07-10T21:33:57.919Z,99.99
2018-07-10T21:35:51.320Z,99.99
2018-07-10T21:36:51.258Z,99.99
2018-07-10T21:38:44.726Z,99.99
2018-07-10T21:39:44.628Z,99.99
2018-07-10T21:41:37.536Z,99.99
2018-07-10T21:42:37.521Z,99.99
2018-07-10T21:44:30.883Z,99.99
2018-07-10T21:45:30.861Z,99.99
2018-07-10T21:47:24.292Z,99.99
2018-07-10T21:48:24.300Z,99.99
2018-07-10T21:50:17.672Z,99.99
2018-07-10T21:51:17.605Z,99.99
2018-07-10T21:53:11.051Z,99.99
2018-07-10T21:54:10.749Z,99.99
2018-07-10T21:56:03.975Z,99.99
2018-07-10T21:57:03.630Z,99.99
2018-07-10T21:58:57.078Z,99.99
2018-07-10T21:59:57.014Z,99.99
2018-07-10T22:01:49.988Z,99.99
2018-07-10T22:02:49.957Z,99.99
2018-07-10T22:04:42.883Z,99.99
2018-07-10T22:05:42.855Z,99.99
2018-07-10T22:07:36.044Z,99.99
2018-07-10T22:08:35.733Z,99.99
2018-07-10T22:10:28.993Z,99.99
2018-07-10T22:11:28.967Z,99.99
2018-07-10T22:13:21.990Z,99.99
2018-07-10T22:14:21.939Z,99.99
2018-07-10T22:16:15.645Z,99.99
2018-07-10T22:17:15.604Z,99.99
2018-07-10T22:19:08.637Z,99.99
2018-07-10T22:20:08.623Z,99.99
2018-07-10T22:22:02.065Z,99.99
2018-07-10T22:23:01.997Z,99.99
2018-07-10T22:24:56.437Z,99.99
2018-07-10T22:25:55.067Z,99.99
2018-07-10T22:27:48.503Z,99.99
2018-07-10T22:28:48.405Z,99.99
2018-07-10T22:30:42.137Z,99.99
2018-07-10T22:31:41.846Z,99.99
2018-07-10T22:33:35.789Z,99.99
2018-07-10T22:34:35.149Z,99.99
2018-07-10T22:36:28.838Z,99.99
2018-07-10T22:37:28.904Z,99.99
2018-07-10T22:39:22.306Z,99.99
2018-07-10T22:40:22.214Z,99.99
2018-07-10T22:42:15.701Z,99.99
2018-07-10T22:43:15.084Z,99.99
2018-07-10T22:45:08.192Z,99.99
2018-07-10T22:46:08.156Z,99.99
2018-07-10T22:48:01.403Z,99.99
2018-07-10T22:49:01.359Z,99.99
2018-07-10T22:50:54.334Z,99.99
2018-07-10T22:51:54.306Z,99.99
2018-07-10T22:53:47.228Z,99.99
2018-07-10T22:54:46.873Z,99.99
2018-07-10T22:56:41.175Z,99.99
2018-07-10T22:57:40.580Z,99.99
2018-07-10T22:59:33.930Z,99.99
2018-07-10T23:00:33.608Z,99.99
2018-07-10T23:02:27.277Z,99.99
2018-07-10T23:03:27.252Z,99.99
2018-07-10T23:05:20.177Z,99.99
2018-07-10T23:06:20.122Z,99.99
2018-07-10T23:08:13.546Z,99.99
2018-07-10T23:09:13.442Z,99.99
2018-07-10T23:11:06.070Z,99.99
2018-07-10T23:12:06.077Z,99.99
2018-07-10T23:13:59.322Z,99.99
2018-07-10T23:14:59.254Z,99.99
2018-07-10T23:16:52.408Z,99.99
2018-07-10T23:17:52.302Z,99.99
2018-07-10T23:19:45.610Z,99.99
2018-07-10T23:20:45.179Z,99.99
2018-07-10T23:22:38.860Z,99.99
2018-07-10T23:23:38.571Z,99.99
2018-07-10T23:25:31.939Z,99.99
2018-07-10T23:26:31.931Z,99.99
2018-07-10T23:28:24.822Z,99.99
2018-07-10T23:29:24.824Z,99.99
2018-07-10T23:31:18.580Z,99.99
2018-07-10T23:32:18.481Z,99.99
2018-07-10T23:34:11.451Z,99.99
2018-07-10T23:35:11.072Z,99.99
2018-07-10T23:37:04.776Z,99.99
2018-07-10T23:38:04.428Z,99.99
2018-07-10T23:39:57.862Z,99.99
2018-07-10T23:40:57.773Z,99.99
2018-07-10T23:42:51.427Z,99.99
2018-07-10T23:43:51.729Z,99.99
2018-07-10T23:45:44.887Z,99.99
2018-07-10T23:46:44.870Z,99.99
2018-07-10T23:48:37.924Z,99.99
2018-07-10T23:49:37.856Z,99.99
2018-07-10T23:51:31.220Z,99.99
2018-07-10T23:52:30.885Z,99.99
2018-07-10T23:54:23.825Z,99.99
2018-07-10T23:55:24.052Z,99.99
2018-07-10T23:57:16.957Z,99.99
2018-07-10T23:58:16.907Z,99.99
